KSQL/SQL METAR and TAF weather

Enter ICAO airport designator
Station Type Date Time Source
KSQL METAR 2019/12/07 04:47 UTC NOAA

KSQL 070447Z 13011KT 6SM -RA BKN023 OVC030 14/12 A2996 RMK LAST


Station Type Date Time Source
KSQL Decoded METAR 2019/12/07 04:47 UTC NOAA

San Carlos Airport, CA, United States (KSQL) 37-31N 122-15W
Dec 06, 2019 - 11:47 PM EST / 2019.12.07 0447 UTC
Wind: from the SE (130 degrees) at 13 MPH (11 KT):0
Visibility: 6 mile(s):0
Sky conditions: overcast
Weather: light rain
Temperature: 57 F (14 C)
Dew Point: 53 F (12 C)
Relative Humidity: 87%
Pressure (altimeter): 29.96 in. Hg (1014 hPa)
ob: KSQL 070447Z 13011KT 6SM -RA BKN023 OVC030 14/12 A2996 RMK LAST
cycle: 5

Station Type Date Time Source
KSQL TAF UTC NOAA

Error!

Example: see airport list